sensor_id;sensor_type;location;lat;lon;timestamp;temperature;humidity
20233;DHT22;37438;55.674;13.074;2023-05-29T00:01:29;11.00;81.60
20233;DHT22;37438;55.674;13.074;2023-05-29T00:04:35;11.00;99.90
20233;DHT22;37438;55.674;13.074;2023-05-29T00:07:41;10.90;99.90
20233;DHT22;37438;55.674;13.074;2023-05-29T00:10:45;10.90;99.90
20233;DHT22;37438;55.674;13.074;2023-05-29T00:13:50;10.80;99.90
20233;DHT22;37438;55.674;13.074;2023-05-29T00:16:54;10.80;99.90
20233;DHT22;37438;55.674;13.074;2023-05-29T00:19:59;10.70;99.90
20233;DHT22;37438;55.674;13.074;2023-05-29T00:23:05;10.70;99.90
20233;DHT22;37438;55.674;13.074;2023-05-29T00:26:10;10.70;99.90
20233;DHT22;37438;55.674;13.074;2023-05-29T00:29:17;10.70;99.90
20233;DHT22;37438;55.674;13.074;2023-05-29T00:32:21;10.60;99.90
20233;DHT22;37438;55.674;13.074;2023-05-29T00:35:26;10.60;99.90
20233;DHT22;37438;55.674;13.074;2023-05-29T00:38:30;10.60;99.90
20233;DHT22;37438;55.674;13.074;2023-05-29T00:41:34;10.50;99.90
20233;DHT22;37438;55.674;13.074;2023-05-29T00:44:38;10.50;99.90
20233;DHT22;37438;55.674;13.074;2023-05-29T00:47:43;10.50;99.90
20233;DHT22;37438;55.674;13.074;2023-05-29T00:50:48;10.40;99.90
20233;DHT22;37438;55.674;13.074;2023-05-29T00:53:55;10.40;99.90
20233;DHT22;37438;55.674;13.074;2023-05-29T00:57:01;10.30;99.90
20233;DHT22;37438;55.674;13.074;2023-05-29T01:00:07;10.40;99.90
20233;DHT22;37438;55.674;13.074;2023-05-29T01:03:20;10.30;99.90
20233;DHT22;37438;55.674;13.074;2023-05-29T01:06:27;10.30;99.90
20233;DHT22;37438;55.674;13.074;2023-05-29T01:09:32;10.30;99.90
20233;DHT22;37438;55.674;13.074;2023-05-29T01:12:54;10.30;99.90
20233;DHT22;37438;55.674;13.074;2023-05-29T01:26:19;10.20;99.90
20233;DHT22;37438;55.674;13.074;2023-05-29T01:29:29;10.10;99.90
20233;DHT22;37438;55.674;13.074;2023-05-29T01:32:36;10.10;99.90
20233;DHT22;37438;55.674;13.074;2023-05-29T01:35:41;10.10;99.90
20233;DHT22;37438;55.674;13.074;2023-05-29T01:38:46;10.10;99.90
20233;DHT22;37438;55.674;13.074;2023-05-29T01:41:51;10.10;99.90
20233;DHT22;37438;55.674;13.074;2023-05-29T01:44:57;10.10;99.90
20233;DHT22;37438;55.674;13.074;2023-05-29T01:48:02;10.00;99.90
20233;DHT22;37438;55.674;13.074;2023-05-29T01:51:07;10.00;99.90
20233;DHT22;37438;55.674;13.074;2023-05-29T01:54:11;9.90;99.90
20233;DHT22;37438;55.674;13.074;2023-05-29T01:57:16;9.90;99.90
20233;DHT22;37438;55.674;13.074;2023-05-29T02:00:21;9.80;99.90
20233;DHT22;37438;55.674;13.074;2023-05-29T02:03:26;9.90;99.90
20233;DHT22;37438;55.674;13.074;2023-05-29T02:06:34;9.90;99.90
20233;DHT22;37438;55.674;13.074;2023-05-29T02:09:38;9.80;99.90
20233;DHT22;37438;55.674;13.074;2023-05-29T02:12:42;9.70;99.90
20233;DHT22;37438;55.674;13.074;2023-05-29T02:15:46;9.90;99.90
20233;DHT22;37438;55.674;13.074;2023-05-29T02:18:51;9.80;99.90
20233;DHT22;37438;55.674;13.074;2023-05-29T02:21:56;9.70;99.90
20233;DHT22;37438;55.674;13.074;2023-05-29T02:25:00;9.70;99.90
20233;DHT22;37438;55.674;13.074;2023-05-29T02:28:04;9.70;99.90
20233;DHT22;37438;55.674;13.074;2023-05-29T02:31:09;9.80;99.90
20233;DHT22;37438;55.674;13.074;2023-05-29T02:34:14;9.80;99.90
20233;DHT22;37438;55.674;13.074;2023-05-29T02:37:19;9.70;99.90
20233;DHT22;37438;55.674;13.074;2023-05-29T02:40:24;9.70;99.90
20233;DHT22;37438;55.674;13.074;2023-05-29T02:43:28;9.70;99.90
20233;DHT22;37438;55.674;13.074;2023-05-29T02:46:32;9.70;99.90
20233;DHT22;37438;55.674;13.074;2023-05-29T02:49:37;9.70;99.90
20233;DHT22;37438;55.674;13.074;2023-05-29T02:52:42;9.70;99.90
20233;DHT22;37438;55.674;13.074;2023-05-29T02:55:46;9.70;99.90
20233;DHT22;37438;55.674;13.074;2023-05-29T02:58:52;9.70;99.90
20233;DHT22;37438;55.674;13.074;2023-05-29T03:01:56;9.80;99.90
20233;DHT22;37438;55.674;13.074;2023-05-29T03:05:01;9.70;99.90
20233;DHT22;37438;55.674;13.074;2023-05-29T03:08:06;9.80;99.90
20233;DHT22;37438;55.674;13.074;2023-05-29T03:11:11;9.80;99.90
20233;DHT22;37438;55.674;13.074;2023-05-29T03:14:15;9.80;99.90
20233;DHT22;37438;55.674;13.074;2023-05-29T03:17:20;9.90;99.90
20233;DHT22;37438;55.674;13.074;2023-05-29T03:20:25;10.00;99.90
20233;DHT22;37438;55.674;13.074;2023-05-29T03:23:32;10.00;99.90
20233;DHT22;37438;55.674;13.074;2023-05-29T03:26:37;10.00;99.90
20233;DHT22;37438;55.674;13.074;2023-05-29T03:29:42;10.10;99.90
20233;DHT22;37438;55.674;13.074;2023-05-29T03:32:47;10.10;99.90
20233;DHT22;37438;55.674;13.074;2023-05-29T03:35:51;10.20;99.90
20233;DHT22;37438;55.674;13.074;2023-05-29T03:38:56;10.20;99.90
20233;DHT22;37438;55.674;13.074;2023-05-29T03:42:00;10.30;99.90
20233;DHT22;37438;55.674;13.074;2023-05-29T03:45:05;10.20;99.90
20233;DHT22;37438;55.674;13.074;2023-05-29T03:48:12;10.30;99.90
20233;DHT22;37438;55.674;13.074;2023-05-29T03:51:17;10.40;99.90
20233;DHT22;37438;55.674;13.074;2023-05-29T03:54:22;10.50;99.90
20233;DHT22;37438;55.674;13.074;2023-05-29T03:57:26;10.60;99.90
20233;DHT22;37438;55.674;13.074;2023-05-29T04:00:31;10.70;99.90
20233;DHT22;37438;55.674;13.074;2023-05-29T04:03:38;10.80;99.90
20233;DHT22;37438;55.674;13.074;2023-05-29T04:06:43;10.80;99.90
20233;DHT22;37438;55.674;13.074;2023-05-29T04:09:48;10.80;99.90
20233;DHT22;37438;55.674;13.074;2023-05-29T04:12:53;11.10;99.90
20233;DHT22;37438;55.674;13.074;2023-05-29T04:15:59;11.10;99.90
20233;DHT22;37438;55.674;13.074;2023-05-29T04:19:03;11.00;99.90
20233;DHT22;37438;55.674;13.074;2023-05-29T04:22:08;11.10;99.90
20233;DHT22;37438;55.674;13.074;2023-05-29T04:25:13;11.40;99.90
20233;DHT22;37438;55.674;13.074;2023-05-29T04:28:17;11.40;99.90
20233;DHT22;37438;55.674;13.074;2023-05-29T04:31:25;11.40;99.90
20233;DHT22;37438;55.674;13.074;2023-05-29T04:34:31;11.50;99.90
20233;DHT22;37438;55.674;13.074;2023-05-29T04:37:36;11.40;99.90
20233;DHT22;37438;55.674;13.074;2023-05-29T04:40:44;11.60;99.90
20233;DHT22;37438;55.674;13.074;2023-05-29T04:43:53;11.50;99.90
20233;DHT22;37438;55.674;13.074;2023-05-29T04:47:02;11.70;99.90
20233;DHT22;37438;55.674;13.074;2023-05-29T04:50:14;11.50;99.90
20233;DHT22;37438;55.674;13.074;2023-05-29T04:53:20;11.60;99.90
20233;DHT22;37438;55.674;13.074;2023-05-29T04:56:25;11.60;99.90
20233;DHT22;37438;55.674;13.074;2023-05-29T04:59:31;11.70;99.90
20233;DHT22;37438;55.674;13.074;2023-05-29T05:02:35;11.80;99.90
20233;DHT22;37438;55.674;13.074;2023-05-29T05:05:41;12.00;99.90
20233;DHT22;37438;55.674;13.074;2023-05-29T05:08:46;12.20;99.90
20233;DHT22;37438;55.674;13.074;2023-05-29T05:11:50;12.30;99.90
20233;DHT22;37438;55.674;13.074;2023-05-29T05:14:55;12.30;99.90
20233;DHT22;37438;55.674;13.074;2023-05-29T05:18:01;12.30;99.90
20233;DHT22;37438;55.674;13.074;2023-05-29T05:21:06;12.60;99.90
20233;DHT22;37438;55.674;13.074;2023-05-29T05:24:12;13.10;99.90
20233;DHT22;37438;55.674;13.074;2023-05-29T05:27:18;13.60;99.90
20233;DHT22;37438;55.674;13.074;2023-05-29T05:30:22;13.20;99.90
20233;DHT22;37438;55.674;13.074;2023-05-29T05:33:26;13.40;99.90
20233;DHT22;37438;55.674;13.074;2023-05-29T05:36:31;13.10;99.90
20233;DHT22;37438;55.674;13.074;2023-05-29T05:39:44;13.50;99.90
20233;DHT22;37438;55.674;13.074;2023-05-29T05:42:49;13.40;99.90
20233;DHT22;37438;55.674;13.074;2023-05-29T05:45:56;13.70;99.90
20233;DHT22;37438;55.674;13.074;2023-05-29T05:49:01;14.10;99.90
20233;DHT22;37438;55.674;13.074;2023-05-29T05:52:05;13.80;23.80
20233;DHT22;37438;55.674;13.074;2023-05-29T05:55:10;13.50;99.30
20233;DHT22;37438;55.674;13.074;2023-05-29T05:58:15;13.90;99.90
20233;DHT22;37438;55.674;13.074;2023-05-29T06:01:20;14.20;99.90
20233;DHT22;37438;55.674;13.074;2023-05-29T06:04:25;14.10;1.00
20233;DHT22;37438;55.674;13.074;2023-05-29T06:07:30;13.90;84.70
20233;DHT22;37438;55.674;13.074;2023-05-29T06:10:34;14.50;1.00
20233;DHT22;37438;55.674;13.074;2023-05-29T06:13:39;14.30;17.50
20233;DHT22;37438;55.674;13.074;2023-05-29T06:16:53;14.40;1.00
20233;DHT22;37438;55.674;13.074;2023-05-29T06:19:59;14.50;1.00
20233;DHT22;37438;55.674;13.074;2023-05-29T06:23:05;14.80;99.90
20233;DHT22;37438;55.674;13.074;2023-05-29T06:26:10;14.40;99.90
20233;DHT22;37438;55.674;13.074;2023-05-29T06:29:16;14.20;1.00
20233;DHT22;37438;55.674;13.074;2023-05-29T06:32:21;14.80;99.90
20233;DHT22;37438;55.674;13.074;2023-05-29T06:35:25;14.80;99.90
20233;DHT22;37438;55.674;13.074;2023-05-29T06:38:31;15.40;99.90
20233;DHT22;37438;55.674;13.074;2023-05-29T06:41:35;15.20;1.00
20233;DHT22;37438;55.674;13.074;2023-05-29T06:44:40;15.90;84.90
20233;DHT22;37438;55.674;13.074;2023-05-29T06:47:45;14.10;99.90
20233;DHT22;37438;55.674;13.074;2023-05-29T06:50:49;13.90;1.00
20233;DHT22;37438;55.674;13.074;2023-05-29T06:54:12;13.80;1.00
20233;DHT22;37438;55.674;13.074;2023-05-29T06:57:18;14.20;1.00
20233;DHT22;37438;55.674;13.074;2023-05-29T07:00:23;14.60;1.00
20233;DHT22;37438;55.674;13.074;2023-05-29T07:03:54;14.60;99.90
20233;DHT22;37438;55.674;13.074;2023-05-29T07:06:58;15.20;99.90
20233;DHT22;37438;55.674;13.074;2023-05-29T07:10:03;15.80;1.00
20233;DHT22;37438;55.674;13.074;2023-05-29T07:13:08;16.70;99.90
20233;DHT22;37438;55.674;13.074;2023-05-29T07:16:13;16.00;99.90
20233;DHT22;37438;55.674;13.074;2023-05-29T07:19:33;15.50;72.40
20233;DHT22;37438;55.674;13.074;2023-05-29T07:22:41;15.40;99.90
20233;DHT22;37438;55.674;13.074;2023-05-29T07:25:45;15.60;99.90
20233;DHT22;37438;55.674;13.074;2023-05-29T07:28:50;15.40;99.90
20233;DHT22;37438;55.674;13.074;2023-05-29T07:31:55;16.10;99.90
20233;DHT22;37438;55.674;13.074;2023-05-29T07:35:01;15.50;99.90
20233;DHT22;37438;55.674;13.074;2023-05-29T07:38:06;15.70;75.80
20233;DHT22;37438;55.674;13.074;2023-05-29T07:41:11;15.40;84.10
20233;DHT22;37438;55.674;13.074;2023-05-29T07:44:16;16.00;33.90
20233;DHT22;37438;55.674;13.074;2023-05-29T07:47:20;17.10;99.90
20233;DHT22;37438;55.674;13.074;2023-05-29T07:50:24;15.90;99.90
20233;DHT22;37438;55.674;13.074;2023-05-29T07:53:29;16.00;1.00
20233;DHT22;37438;55.674;13.074;2023-05-29T07:56:35;16.60;99.90
20233;DHT22;37438;55.674;13.074;2023-05-29T07:59:43;16.70;99.90
20233;DHT22;37438;55.674;13.074;2023-05-29T08:02:48;16.70;99.90
20233;DHT22;37438;55.674;13.074;2023-05-29T08:06:15;17.90;99.90
20233;DHT22;37438;55.674;13.074;2023-05-29T08:09:21;17.70;99.90
20233;DHT22;37438;55.674;13.074;2023-05-29T08:12:26;17.40;99.90
20233;DHT22;37438;55.674;13.074;2023-05-29T08:15:33;16.80;1.00
20233;DHT22;37438;55.674;13.074;2023-05-29T08:18:38;17.50;99.90
20233;DHT22;37438;55.674;13.074;2023-05-29T08:21:43;18.10;99.90
20233;DHT22;37438;55.674;13.074;2023-05-29T08:24:47;19.40;1.00
20233;DHT22;37438;55.674;13.074;2023-05-29T08:27:52;18.20;1.00
20233;DHT22;37438;55.674;13.074;2023-05-29T08:30:57;17.90;1.00
20233;DHT22;37438;55.674;13.074;2023-05-29T08:34:01;17.90;30.60
20233;DHT22;37438;55.674;13.074;2023-05-29T08:37:05;18.00;79.30
20233;DHT22;37438;55.674;13.074;2023-05-29T08:40:10;18.50;99.90
20233;DHT22;37438;55.674;13.074;2023-05-29T08:43:20;19.00;99.90
20233;DHT22;37438;55.674;13.074;2023-05-29T08:46:25;19.20;99.90
20233;DHT22;37438;55.674;13.074;2023-05-29T08:49:41;18.90;99.90
20233;DHT22;37438;55.674;13.074;2023-05-29T08:52:47;18.00;1.00
20233;DHT22;37438;55.674;13.074;2023-05-29T08:55:52;17.80;99.90
20233;DHT22;37438;55.674;13.074;2023-05-29T08:58:57;18.00;99.90
20233;DHT22;37438;55.674;13.074;2023-05-29T09:02:03;18.90;99.90
20233;DHT22;37438;55.674;13.074;2023-05-29T09:05:09;19.00;99.90
20233;DHT22;37438;55.674;13.074;2023-05-29T09:08:14;18.80;99.90
20233;DHT22;37438;55.674;13.074;2023-05-29T09:11:19;18.90;99.90
20233;DHT22;37438;55.674;13.074;2023-05-29T09:14:42;18.60;1.00
20233;DHT22;37438;55.674;13.074;2023-05-29T09:17:55;19.00;1.00
20233;DHT22;37438;55.674;13.074;2023-05-29T09:21:07;20.20;99.90
20233;DHT22;37438;55.674;13.074;2023-05-29T09:24:14;19.70;99.90
20233;DHT22;37438;55.674;13.074;2023-05-29T09:27:19;19.90;99.90
20233;DHT22;37438;55.674;13.074;2023-05-29T09:30:43;19.60;99.90
20233;DHT22;37438;55.674;13.074;2023-05-29T09:33:49;19.80;57.50
20233;DHT22;37438;55.674;13.074;2023-05-29T09:36:53;20.00;86.40
20233;DHT22;37438;55.674;13.074;2023-05-29T09:40:07;19.90;99.90
20233;DHT22;37438;55.674;13.074;2023-05-29T09:46:18;20.00;1.00
20233;DHT22;37438;55.674;13.074;2023-05-29T09:49:23;20.40;99.90
20233;DHT22;37438;55.674;13.074;2023-05-29T09:52:29;20.20;99.90
20233;DHT22;37438;55.674;13.074;2023-05-29T09:55:35;20.00;99.90
20233;DHT22;37438;55.674;13.074;2023-05-29T09:58:42;20.70;99.90
20233;DHT22;37438;55.674;13.074;2023-05-29T10:02:02;21.20;50.70
20233;DHT22;37438;55.674;13.074;2023-05-29T10:05:12;21.90;99.90
20233;DHT22;37438;55.674;13.074;2023-05-29T10:08:20;21.90;99.90
20233;DHT22;37438;55.674;13.074;2023-05-29T10:11:25;22.10;1.00
20233;DHT22;37438;55.674;13.074;2023-05-29T10:14:31;22.40;99.90
20233;DHT22;37438;55.674;13.074;2023-05-29T10:17:38;23.40;99.90
20233;DHT22;37438;55.674;13.074;2023-05-29T10:20:45;23.10;99.90
20233;DHT22;37438;55.674;13.074;2023-05-29T10:23:51;23.40;99.90
20233;DHT22;37438;55.674;13.074;2023-05-29T10:26:57;23.20;99.90
20233;DHT22;37438;55.674;13.074;2023-05-29T10:30:09;24.10;99.90
20233;DHT22;37438;55.674;13.074;2023-05-29T10:36:35;25.20;99.90
20233;DHT22;37438;55.674;13.074;2023-05-29T10:39:42;24.30;99.90
20233;DHT22;37438;55.674;13.074;2023-05-29T10:42:51;24.10;99.90
20233;DHT22;37438;55.674;13.074;2023-05-29T10:45:59;24.60;99.90
20233;DHT22;37438;55.674;13.074;2023-05-29T10:49:18;24.50;99.90
20233;DHT22;37438;55.674;13.074;2023-05-29T10:52:23;24.80;99.90
20233;DHT22;37438;55.674;13.074;2023-05-29T10:55:37;24.50;99.90
20233;DHT22;37438;55.674;13.074;2023-05-29T10:58:42;25.40;99.90
20233;DHT22;37438;55.674;13.074;2023-05-29T11:01:51;25.30;99.90
20233;DHT22;37438;55.674;13.074;2023-05-29T11:05:19;25.40;99.90
20233;DHT22;37438;55.674;13.074;2023-05-29T11:08:46;24.70;99.90
20233;DHT22;37438;55.674;13.074;2023-05-29T11:12:21;24.40;99.90
20233;DHT22;37438;55.674;13.074;2023-05-29T11:15:40;25.80;99.90
20233;DHT22;37438;55.674;13.074;2023-05-29T11:18:47;25.20;99.90
20233;DHT22;37438;55.674;13.074;2023-05-29T11:25:09;26.00;99.90
20233;DHT22;37438;55.674;13.074;2023-05-29T11:28:15;26.20;99.90
20233;DHT22;37438;55.674;13.074;2023-05-29T11:31:20;25.90;99.90
20233;DHT22;37438;55.674;13.074;2023-05-29T11:34:28;24.80;99.90
20233;DHT22;37438;55.674;13.074;2023-05-29T11:37:33;24.80;99.90
20233;DHT22;37438;55.674;13.074;2023-05-29T11:40:37;25.50;99.90
20233;DHT22;37438;55.674;13.074;2023-05-29T11:43:45;24.20;99.90
20233;DHT22;37438;55.674;13.074;2023-05-29T11:47:07;24.00;99.90
20233;DHT22;37438;55.674;13.074;2023-05-29T11:50:26;23.40;99.90
20233;DHT22;37438;55.674;13.074;2023-05-29T11:53:31;22.70;99.90
20233;DHT22;37438;55.674;13.074;2023-05-29T11:56:35;23.30;99.90
20233;DHT22;37438;55.674;13.074;2023-05-29T11:59:42;23.60;99.90
20233;DHT22;37438;55.674;13.074;2023-05-29T12:02:47;23.60;99.90
20233;DHT22;37438;55.674;13.074;2023-05-29T12:05:52;24.30;99.90
20233;DHT22;37438;55.674;13.074;2023-05-29T12:09:00;24.30;99.90
20233;DHT22;37438;55.674;13.074;2023-05-29T12:12:06;24.60;99.90
20233;DHT22;37438;55.674;13.074;2023-05-29T12:15:11;24.60;99.90
20233;DHT22;37438;55.674;13.074;2023-05-29T12:18:16;26.00;99.90
20233;DHT22;37438;55.674;13.074;2023-05-29T12:21:21;26.70;99.90
20233;DHT22;37438;55.674;13.074;2023-05-29T12:24:26;26.50;99.90
20233;DHT22;37438;55.674;13.074;2023-05-29T12:27:47;25.10;99.90
20233;DHT22;37438;55.674;13.074;2023-05-29T12:30:58;24.10;99.90
20233;DHT22;37438;55.674;13.074;2023-05-29T12:34:11;22.10;99.90
20233;DHT22;37438;55.674;13.074;2023-05-29T12:37:22;22.40;99.90
20233;DHT22;37438;55.674;13.074;2023-05-29T12:40:32;23.40;99.90
20233;DHT22;37438;55.674;13.074;2023-05-29T12:43:41;23.00;99.90
20233;DHT22;37438;55.674;13.074;2023-05-29T12:46:45;22.40;99.90
20233;DHT22;37438;55.674;13.074;2023-05-29T12:49:50;22.50;99.90
20233;DHT22;37438;55.674;13.074;2023-05-29T12:53:00;23.50;99.90
20233;DHT22;37438;55.674;13.074;2023-05-29T12:56:05;23.80;99.90
20233;DHT22;37438;55.674;13.074;2023-05-29T12:59:10;23.00;99.90
20233;DHT22;37438;55.674;13.074;2023-05-29T13:02:15;23.20;99.90
20233;DHT22;37438;55.674;13.074;2023-05-29T13:05:20;24.70;99.90
20233;DHT22;37438;55.674;13.074;2023-05-29T13:08:28;24.40;99.90
20233;DHT22;37438;55.674;13.074;2023-05-29T13:11:33;24.80;99.90
20233;DHT22;37438;55.674;13.074;2023-05-29T13:14:40;23.50;99.90
20233;DHT22;37438;55.674;13.074;2023-05-29T13:17:45;24.60;99.90
20233;DHT22;37438;55.674;13.074;2023-05-29T13:20:49;25.40;99.90
20233;DHT22;37438;55.674;13.074;2023-05-29T13:23:54;24.80;99.90
20233;DHT22;37438;55.674;13.074;2023-05-29T13:26:59;23.80;99.90
20233;DHT22;37438;55.674;13.074;2023-05-29T13:30:06;24.40;99.90
20233;DHT22;37438;55.674;13.074;2023-05-29T13:33:10;23.10;99.90
20233;DHT22;37438;55.674;13.074;2023-05-29T13:36:15;22.70;99.90
20233;DHT22;37438;55.674;13.074;2023-05-29T13:39:19;22.60;99.90
20233;DHT22;37438;55.674;13.074;2023-05-29T13:42:24;23.60;99.90
20233;DHT22;37438;55.674;13.074;2023-05-29T13:45:28;24.00;99.90
20233;DHT22;37438;55.674;13.074;2023-05-29T13:48:33;24.20;99.90
20233;DHT22;37438;55.674;13.074;2023-05-29T13:51:38;22.60;99.90
20233;DHT22;37438;55.674;13.074;2023-05-29T13:54:42;22.70;99.90
20233;DHT22;37438;55.674;13.074;2023-05-29T13:57:47;22.80;99.90
20233;DHT22;37438;55.674;13.074;2023-05-29T14:00:51;22.00;99.90
20233;DHT22;37438;55.674;13.074;2023-05-29T14:03:56;21.80;99.90
20233;DHT22;37438;55.674;13.074;2023-05-29T14:07:01;21.70;99.90
20233;DHT22;37438;55.674;13.074;2023-05-29T14:10:05;21.90;99.90
20233;DHT22;37438;55.674;13.074;2023-05-29T14:13:10;21.90;99.90
20233;DHT22;37438;55.674;13.074;2023-05-29T14:16:15;21.80;99.90
20233;DHT22;37438;55.674;13.074;2023-05-29T14:19:21;21.80;99.90
20233;DHT22;37438;55.674;13.074;2023-05-29T14:22:26;21.70;99.90
20233;DHT22;37438;55.674;13.074;2023-05-29T14:25:31;22.40;99.90
20233;DHT22;37438;55.674;13.074;2023-05-29T14:28:35;22.00;99.90
20233;DHT22;37438;55.674;13.074;2023-05-29T14:31:42;21.70;99.90
20233;DHT22;37438;55.674;13.074;2023-05-29T14:34:47;21.30;99.90
20233;DHT22;37438;55.674;13.074;2023-05-29T14:37:52;21.30;99.90
20233;DHT22;37438;55.674;13.074;2023-05-29T14:40:57;21.00;99.90
20233;DHT22;37438;55.674;13.074;2023-05-29T14:44:13;21.50;99.90
20233;DHT22;37438;55.674;13.074;2023-05-29T14:47:18;21.70;99.90
20233;DHT22;37438;55.674;13.074;2023-05-29T14:50:22;21.80;99.90
20233;DHT22;37438;55.674;13.074;2023-05-29T14:53:27;22.00;99.90
20233;DHT22;37438;55.674;13.074;2023-05-29T14:56:31;22.20;99.90
20233;DHT22;37438;55.674;13.074;2023-05-29T14:59:36;21.90;99.90
20233;DHT22;37438;55.674;13.074;2023-05-29T15:02:40;22.60;99.90
20233;DHT22;37438;55.674;13.074;2023-05-29T15:05:46;22.70;99.90
20233;DHT22;37438;55.674;13.074;2023-05-29T15:08:51;22.00;99.90
20233;DHT22;37438;55.674;13.074;2023-05-29T15:11:55;21.40;99.90
20233;DHT22;37438;55.674;13.074;2023-05-29T15:14:59;21.00;99.90
20233;DHT22;37438;55.674;13.074;2023-05-29T15:18:04;21.40;99.90
20233;DHT22;37438;55.674;13.074;2023-05-29T15:21:08;21.80;99.90
20233;DHT22;37438;55.674;13.074;2023-05-29T15:24:14;22.00;99.90
20233;DHT22;37438;55.674;13.074;2023-05-29T15:27:18;21.80;99.90
20233;DHT22;37438;55.674;13.074;2023-05-29T15:30:23;22.10;99.90
20233;DHT22;37438;55.674;13.074;2023-05-29T15:33:27;22.50;99.90
20233;DHT22;37438;55.674;13.074;2023-05-29T15:36:34;22.30;99.90
20233;DHT22;37438;55.674;13.074;2023-05-29T15:39:40;21.80;99.90
20233;DHT22;37438;55.674;13.074;2023-05-29T15:42:44;22.70;99.90
20233;DHT22;37438;55.674;13.074;2023-05-29T15:45:50;22.70;99.90
20233;DHT22;37438;55.674;13.074;2023-05-29T15:48:54;22.60;99.90
20233;DHT22;37438;55.674;13.074;2023-05-29T15:51:58;22.40;99.90
20233;DHT22;37438;55.674;13.074;2023-05-29T15:55:03;22.40;99.90
20233;DHT22;37438;55.674;13.074;2023-05-29T15:58:08;23.40;99.90
20233;DHT22;37438;55.674;13.074;2023-05-29T16:01:12;24.10;99.90
20233;DHT22;37438;55.674;13.074;2023-05-29T16:04:17;23.90;99.90
20233;DHT22;37438;55.674;13.074;2023-05-29T16:07:21;24.40;99.90
20233;DHT22;37438;55.674;13.074;2023-05-29T16:10:25;23.90;99.90
20233;DHT22;37438;55.674;13.074;2023-05-29T16:13:30;23.50;99.90
20233;DHT22;37438;55.674;13.074;2023-05-29T16:16:37;24.30;99.90
20233;DHT22;37438;55.674;13.074;2023-05-29T16:19:41;24.30;99.90
20233;DHT22;37438;55.674;13.074;2023-05-29T16:22:46;23.40;99.90
20233;DHT22;37438;55.674;13.074;2023-05-29T16:25:52;23.30;99.90
20233;DHT22;37438;55.674;13.074;2023-05-29T16:28:59;22.70;99.90
20233;DHT22;37438;55.674;13.074;2023-05-29T16:32:03;23.50;99.90
20233;DHT22;37438;55.674;13.074;2023-05-29T16:35:08;23.30;99.90
20233;DHT22;37438;55.674;13.074;2023-05-29T16:38:12;23.00;99.90
20233;DHT22;37438;55.674;13.074;2023-05-29T16:41:17;22.70;99.90
20233;DHT22;37438;55.674;13.074;2023-05-29T16:44:22;20.00;99.90
20233;DHT22;37438;55.674;13.074;2023-05-29T16:47:26;18.60;99.90
20233;DHT22;37438;55.674;13.074;2023-05-29T16:50:30;18.20;99.90
20233;DHT22;37438;55.674;13.074;2023-05-29T16:53:35;18.10;99.90
20233;DHT22;37438;55.674;13.074;2023-05-29T16:56:39;18.00;99.90
20233;DHT22;37438;55.674;13.074;2023-05-29T16:59:44;17.80;99.90
20233;DHT22;37438;55.674;13.074;2023-05-29T17:02:48;17.30;99.90
20233;DHT22;37438;55.674;13.074;2023-05-29T17:05:53;17.10;99.90
20233;DHT22;37438;55.674;13.074;2023-05-29T17:08:57;17.00;99.90
20233;DHT22;37438;55.674;13.074;2023-05-29T17:12:02;16.80;99.90
20233;DHT22;37438;55.674;13.074;2023-05-29T17:15:07;16.90;99.90
20233;DHT22;37438;55.674;13.074;2023-05-29T17:18:11;16.60;1.00
20233;DHT22;37438;55.674;13.074;2023-05-29T17:21:16;16.50;1.00
20233;DHT22;37438;55.674;13.074;2023-05-29T17:24:20;16.50;1.00
20233;DHT22;37438;55.674;13.074;2023-05-29T17:27:25;16.50;1.00
20233;DHT22;37438;55.674;13.074;2023-05-29T17:30:29;16.50;1.00
20233;DHT22;37438;55.674;13.074;2023-05-29T17:33:34;16.50;1.00
20233;DHT22;37438;55.674;13.074;2023-05-29T17:36:38;16.40;1.00
20233;DHT22;37438;55.674;13.074;2023-05-29T17:39:43;16.10;1.00
20233;DHT22;37438;55.674;13.074;2023-05-29T17:42:48;16.20;1.00
20233;DHT22;37438;55.674;13.074;2023-05-29T17:45:52;16.00;1.00
20233;DHT22;37438;55.674;13.074;2023-05-29T17:48:57;16.00;1.00
20233;DHT22;37438;55.674;13.074;2023-05-29T17:52:02;15.90;1.00
20233;DHT22;37438;55.674;13.074;2023-05-29T17:55:09;15.70;1.00
20233;DHT22;37438;55.674;13.074;2023-05-29T17:58:13;15.80;1.00
20233;DHT22;37438;55.674;13.074;2023-05-29T18:01:18;15.80;1.00
20233;DHT22;37438;55.674;13.074;2023-05-29T18:04:22;15.60;1.00
20233;DHT22;37438;55.674;13.074;2023-05-29T18:07:27;15.60;1.00
20233;DHT22;37438;55.674;13.074;2023-05-29T18:10:31;15.50;1.00
20233;DHT22;37438;55.674;13.074;2023-05-29T18:13:36;15.50;1.00
20233;DHT22;37438;55.674;13.074;2023-05-29T18:16:40;15.30;1.00
20233;DHT22;37438;55.674;13.074;2023-05-29T18:19:45;15.30;1.20
20233;DHT22;37438;55.674;13.074;2023-05-29T18:22:50;15.10;32.40
20233;DHT22;37438;55.674;13.074;2023-05-29T18:25:54;15.10;75.60
20233;DHT22;37438;55.674;13.074;2023-05-29T18:28:59;15.10;99.90
20233;DHT22;37438;55.674;13.074;2023-05-29T18:32:06;15.00;98.40
20233;DHT22;37438;55.674;13.074;2023-05-29T18:35:11;14.90;37.20
20233;DHT22;37438;55.674;13.074;2023-05-29T18:38:15;14.80;33.60
20233;DHT22;37438;55.674;13.074;2023-05-29T18:41:20;14.70;37.20
20233;DHT22;37438;55.674;13.074;2023-05-29T18:44:25;14.70;53.80
20233;DHT22;37438;55.674;13.074;2023-05-29T18:47:30;14.50;64.00
20233;DHT22;37438;55.674;13.074;2023-05-29T18:50:35;14.50;99.90
20233;DHT22;37438;55.674;13.074;2023-05-29T18:53:39;14.30;99.90
20233;DHT22;37438;55.674;13.074;2023-05-29T18:56:44;14.20;99.90
20233;DHT22;37438;55.674;13.074;2023-05-29T18:59:49;14.20;99.90
20233;DHT22;37438;55.674;13.074;2023-05-29T19:02:55;14.10;99.90
20233;DHT22;37438;55.674;13.074;2023-05-29T19:06:00;14.00;99.90
20233;DHT22;37438;55.674;13.074;2023-05-29T19:09:04;14.00;99.90
20233;DHT22;37438;55.674;13.074;2023-05-29T19:12:10;13.90;99.90
20233;DHT22;37438;55.674;13.074;2023-05-29T19:15:14;13.80;99.90
20233;DHT22;37438;55.674;13.074;2023-05-29T19:18:19;13.70;1.00
20233;DHT22;37438;55.674;13.074;2023-05-29T19:21:23;13.60;1.00
20233;DHT22;37438;55.674;13.074;2023-05-29T19:24:28;13.60;1.00
20233;DHT22;37438;55.674;13.074;2023-05-29T19:27:32;13.50;1.00
20233;DHT22;37438;55.674;13.074;2023-05-29T19:30:37;13.40;1.00
20233;DHT22;37438;55.674;13.074;2023-05-29T19:33:42;13.40;1.00
20233;DHT22;37438;55.674;13.074;2023-05-29T19:36:46;13.30;1.00
20233;DHT22;37438;55.674;13.074;2023-05-29T19:39:50;13.30;1.00
20233;DHT22;37438;55.674;13.074;2023-05-29T19:42:59;13.20;21.90